Airfield :
LOGIN :

Register | Disclaimer

   EN    FR    IT 

 










Legend :    VFR   Marginal VFR   IFR   Intensive IFR   Very Intensive IFR
Visi :
Ceiling :
>= 8 km
>= 3000ft
5 to 8 km
1000 to 3000 ft
1500m to 5 km
500 to 1000 ft
800 to 1500m
200 to 500 ft
< 800m
< 200 ft
Symbols :   Thunderstorms  Fog  Heavy snow  Heavy precipitations  Wind > 20 kt
SIGMETs :     Misc.  Thunderstorms  Icing  Turbulence  Mountain Waves  Volcanic Ashes






- Airport Elevation : 46 ft
- IATA code : PAF


LPMT - Montijo Air Base

CURRENT METAR :
  • 200800Z 16008KT 7000 -RADZ SCT006 BKN019 17/17 Q1005

EXPIRED METARs :
  • 200700Z 14006KT 9999 FEW006 BKN0019 17/17 Q1006
  • 200600Z 12005KT 9999 FEW008 BKN020 17/16 Q1006

TAF TAF LPMT
Valid from the 20 at 06:00 until the 21 at 06:00 UTC


200507Z 2006/2106 16005KT 9999 SCT012 BKN025
BECMG 2008/2011 16018KT 7000 -RA
TEMPO 2011/2013 16022G35KT 2500 +RA SCT010 BKN014
TEMPO 2013/2017 18030G50KT 1200 +RADZ BKN008
BECMG 2017/2019 22015KT 9999 NSW SCT012 SCT020
TEMPO 2019/2023 22015G25KT 2000 +SHRA BKN008 SCT022CB
PROB40
TEMPO 2023/2106 22015G25KT 4000 SHRA BKN008 SCT022TCU



MET'MAP, your aeronautical weather chart ! - Copyright ORBIFLY December 2007 - Disclaimer

ORBIFLY MET'MAP TEAM :

Programming & Development : Alexandra Zaïnal
Concept & original design : Baudouin d'Aumeries
Assistance for programming : Marc-Olivier Méhu
Technical & hardware support : Manuel Goepfert

Contact : metmap@orbifly.com




SOURCES & CREDITS :

   NOAA